This is the latest recevied weather packets stored in our database for station/object WX2P-13. If no packets are shown the sender has not sent any weather packets the latest 10 day(s).
| Time | Temp. | Humidity | Pressure | Rain* | Wind** | Luminosity | Snow |
|---|---|---|---|---|---|---|---|
| 1777601681 | 24.44° C | 90% | 1012.5 hPa | 0 mm | - | 0 W/m² | - |
| 1777601376 | 24.44° C | 90% | 1012.2 hPa | 0 mm | - | 0 W/m² | - |
| 1777601073 | 24.44° C | 90% | 1012.1 hPa | 0 mm | - | 0 W/m² | - |
| 1777600770 | 24.44° C | 90% | 1011.9 hPa | 0 mm | - | 0 W/m² | - |
| 1777600466 | 24.44° C | 90% | 1011.9 hPa | 0 mm | - | 0 W/m² | - |
| 1777600161 | 24.44° C | 89% | 1011.9 hPa | 0 mm | - | 0 W/m² | - |
| 1777585876 | 27.22° C | 77% | 1011 hPa | 0 mm | - | 107 W/m² | - |
| 1777585571 | 26.67° C | 79% | 1010.8 hPa | 0 mm | - | 94 W/m² | - |
| 1777585267 | 26.67° C | 78% | 1010.9 hPa | 0 mm | - | 89 W/m² | - |
| 1777584659 | 27.22° C | 77% | 1010.8 hPa | 0 mm | - | 97 W/m² | - |
| 1777584356 | 27.22° C | 77% | 1011.1 hPa | 0 mm | - | 115 W/m² | - |
| 1777584051 | 27.78° C | 76% | 1011 hPa | 0 mm | - | 70 W/m² | - |
| 1777583746 | 27.78° C | 76% | 1011 hPa | 0 mm | - | 105 W/m² | - |
| 1777583445 | 27.78° C | 75% | 1010.9 hPa | 0 mm | - | 131 W/m² | - |
| 1777583145 | 28.33° C | 74% | 1010.9 hPa | 0 mm | - | 75 W/m² | - |
| 1777582233 | 27.78° C | 77% | 1011.2 hPa | 0 mm | - | 158 W/m² | - |
| 1777581016 | 26.67° C | 79% | 1011.3 hPa | 0 mm | - | 124 W/m² | - |
| 1777580412 | 27.22° C | 78% | 1011.3 hPa | 0 mm | - | 144 W/m² | - |
| 1777580107 | 27.22° C | 78% | 1011.4 hPa | 0 mm | - | 107 W/m² | - |
| 1777579503 | 27.78° C | 76% | 1011.5 hPa | 0 mm | - | 199 W/m² | - |
| 1777578589 | 27.78° C | 76% | 1011.5 hPa | 0 mm | - | 213 W/m² | - |
| 1777577679 | 27.78° C | 75% | 1011.7 hPa | 0 mm | - | 141 W/m² | - |
| 1777577073 | 27.22° C | 77% | 1011.8 hPa | 0 mm | - | 120 W/m² | - |
| 1777576770 | 27.22° C | 78% | 1011.9 hPa | 0 mm | - | 119 W/m² | - |
| 1777576469 | 27.22° C | 77% | 1011.8 hPa | 0 mm | - | 128 W/m² | - |
* Rain latest hour (hover to see other rain measurements)
** Current wind speed in m/s (hover to see current wind gust speed)